createdAt,value
2022-10-18T00:04:31.170Z,100185.13
2022-10-18T00:09:34.290Z,100195.59
2022-10-18T00:14:36.982Z,100192.44
2022-10-18T00:19:39.720Z,100182.06
2022-10-18T00:24:42.357Z,100183.03
2022-10-18T00:29:45.062Z,100198.16
2022-10-18T00:34:47.921Z,100187.19
2022-10-18T00:45:23.056Z,100196.00
2022-10-18T00:50:27.742Z,100190.16
2022-10-18T00:55:32.290Z,100179.09
2022-10-18T01:00:39.074Z,100190.44
2022-10-18T01:05:45.356Z,100182.91
2022-10-18T01:10:59.700Z,100192.53
2022-10-18T01:16:25.202Z,100191.78
2022-10-18T01:22:05.439Z,100190.34
2022-10-18T01:27:35.734Z,100193.88
2022-10-18T01:32:45.539Z,100180.44
2022-10-18T01:37:50.682Z,100190.97
2022-10-18T01:42:53.505Z,100191.22
2022-10-18T01:47:56.364Z,100181.94
2022-10-18T01:52:59.696Z,100187.25
2022-10-18T01:58:20.254Z,100183.16
2022-10-18T02:03:24.604Z,100187.81
2022-10-18T02:08:40.041Z,100192.13
2022-10-18T02:13:45.477Z,100192.84
2022-10-18T02:18:52.735Z,100208.13
2022-10-18T02:23:56.389Z,100198.66
2022-10-18T02:28:59.114Z,100208.25
2022-10-18T02:34:10.150Z,100209.34
2022-10-18T02:39:19.974Z,100210.19
2022-10-18T02:44:22.893Z,100218.56
2022-10-18T02:49:25.565Z,100209.06
2022-10-18T02:54:28.250Z,100218.13
2022-10-18T02:59:31.136Z,100226.09
2022-10-18T03:04:33.939Z,100225.50
2022-10-18T03:09:36.656Z,100238.94
2022-10-18T03:14:39.351Z,100229.72
2022-10-18T03:19:42.009Z,100242.88
2022-10-18T03:24:45.885Z,100229.47
2022-10-18T03:29:48.535Z,100233.56
2022-10-18T03:34:51.168Z,100232.16
2022-10-18T03:39:53.790Z,100238.88
2022-10-18T03:44:56.548Z,100227.78
2022-10-18T03:49:59.302Z,100237.16
2022-10-18T03:55:01.925Z,100242.56
2022-10-18T04:00:06.611Z,100245.16
2022-10-18T04:05:14.802Z,100260.03
2022-10-18T04:10:18.940Z,100249.34
2022-10-18T04:15:21.861Z,100244.00
2022-10-18T04:20:25.421Z,100249.13
2022-10-18T04:25:29.172Z,100255.06
2022-10-18T04:30:31.849Z,100243.13
2022-10-18T04:35:34.542Z,100244.50
2022-10-18T04:40:37.949Z,100242.28
2022-10-18T04:45:40.662Z,100238.94
2022-10-18T04:50:43.296Z,100235.34
2022-10-18T04:55:50.782Z,100231.84
2022-10-18T05:00:53.553Z,100232.84
2022-10-18T05:06:01.808Z,100224.88
2022-10-18T05:11:05.706Z,100235.75
2022-10-18T05:16:08.472Z,100231.44
2022-10-18T05:21:12.737Z,100228.88
2022-10-18T05:26:15.420Z,100232.50
2022-10-18T05:31:18.198Z,100213.22
2022-10-18T05:36:20.950Z,100214.34
2022-10-18T05:41:26.357Z,100222.78
2022-10-18T05:46:28.836Z,100224.41
2022-10-18T05:51:31.498Z,100225.03
2022-10-18T05:56:34.195Z,100233.03
2022-10-18T06:01:37.575Z,100227.13
2022-10-18T06:06:40.526Z,100229.09
2022-10-18T06:11:43.219Z,100218.13
2022-10-18T06:16:45.926Z,100222.13
2022-10-18T06:21:48.664Z,100227.06
2022-10-18T06:26:51.328Z,100215.59
2022-10-18T06:31:54.089Z,100208.69
2022-10-18T06:36:58.789Z,100215.38
2022-10-18T06:42:01.649Z,100219.78
2022-10-18T06:47:08.238Z,100208.00
2022-10-18T06:52:10.897Z,100210.50
2022-10-18T06:57:13.576Z,100219.34
2022-10-18T07:02:17.729Z,100210.94
2022-10-18T07:07:21.534Z,100199.03
2022-10-18T07:12:24.359Z,100197.81
2022-10-18T07:17:27.370Z,100204.22
2022-10-18T07:22:30.640Z,100199.25
2022-10-18T07:27:40.756Z,100191.31
2022-10-18T07:32:43.446Z,100208.84
2022-10-18T07:37:46.105Z,100205.47
2022-10-18T07:42:48.799Z,100215.00
2022-10-18T07:47:58.126Z,100209.47
2022-10-18T07:53:00.755Z,100204.06
2022-10-18T07:58:03.624Z,100216.75
2022-10-18T08:03:06.755Z,100217.50
2022-10-18T08:08:09.482Z,100205.03
2022-10-18T08:13:12.185Z,100210.50
2022-10-18T08:18:15.062Z,100213.94
2022-10-18T08:23:17.685Z,100210.44
2022-10-18T08:28:20.625Z,100200.44
2022-10-18T08:33:23.907Z,100190.91
2022-10-18T08:38:26.595Z,100206.75
2022-10-18T08:44:06.368Z,100217.59
2022-10-18T08:49:13.702Z,100207.59
2022-10-18T08:54:30.909Z,100206.75
2022-10-18T08:59:42.773Z,100214.38
2022-10-18T09:04:51.865Z,100209.06
2022-10-18T09:10:02.931Z,100210.00
2022-10-18T09:15:24.166Z,100217.81
2022-10-18T09:20:55.036Z,100221.84
2022-10-18T09:26:20.199Z,100225.38
2022-10-18T09:31:31.723Z,100246.63
2022-10-18T09:36:38.207Z,100234.91
2022-10-18T09:42:00.774Z,100249.03
2022-10-18T09:47:16.933Z,100248.81
2022-10-18T09:52:24.690Z,100243.88
2022-10-18T09:57:34.929Z,100246.84
2022-10-18T10:02:37.696Z,100220.16
2022-10-18T10:07:48.035Z,100246.38
2022-10-18T10:13:23.702Z,100252.06
2022-10-18T10:18:30.468Z,100234.91
2022-10-18T10:23:36.340Z,100238.78
2022-10-18T10:28:49.158Z,100235.50
2022-10-18T10:34:02.270Z,100249.13
2022-10-18T10:39:14.037Z,100245.47
2022-10-18T10:44:19.918Z,100249.34
2022-10-18T10:49:47.283Z,100258.25
2022-10-18T10:54:52.501Z,100251.59
2022-10-18T10:59:58.828Z,100248.72
2022-10-18T11:05:29.732Z,100233.16
2022-10-18T11:10:35.515Z,100249.06
2022-10-18T11:15:47.019Z,100262.56
2022-10-18T11:21:00.968Z,100245.94
2022-10-18T11:26:12.894Z,100250.94
2022-10-18T11:31:33.624Z,100254.47
2022-10-18T11:37:26.680Z,100252.63
2022-10-18T11:42:30.438Z,100246.41
2022-10-18T11:47:33.250Z,100249.88
2022-10-18T11:53:13.529Z,100243.38
2022-10-18T11:58:43.301Z,100251.13
2022-10-18T12:03:55.451Z,100259.53
2022-10-18T12:09:02.181Z,100249.19
2022-10-18T12:14:23.553Z,100260.59
2022-10-18T12:19:30.199Z,100270.78
2022-10-18T12:24:33.434Z,100271.78
2022-10-18T12:29:39.089Z,100270.00
2022-10-18T12:34:48.861Z,100293.56
2022-10-18T12:40:09.841Z,100308.53
2022-10-18T12:45:14.485Z,100306.81
2022-10-18T12:50:35.296Z,100312.91
2022-10-18T12:55:40.166Z,100306.16
2022-10-18T13:00:42.988Z,100314.81
2022-10-18T13:05:53.778Z,100309.00
2022-10-18T13:11:09.685Z,100308.97
2022-10-18T13:16:30.192Z,100309.00
2022-10-18T13:22:00.509Z,100303.22
2022-10-18T13:27:37.220Z,100292.22
2022-10-18T13:33:17.482Z,100297.00
2022-10-18T13:38:41.582Z,100299.78
2022-10-18T13:43:53.257Z,100298.19
2022-10-18T13:49:00.084Z,100304.41
2022-10-18T13:54:20.916Z,100303.63
2022-10-18T13:59:45.325Z,100310.38
2022-10-18T14:05:23.757Z,100309.13
2022-10-18T14:10:50.101Z,100290.06
2022-10-18T14:16:10.918Z,100303.66
2022-10-18T14:21:21.991Z,100304.25
2022-10-18T14:26:28.938Z,100308.34
2022-10-18T14:31:31.743Z,100305.53
2022-10-18T14:36:41.225Z,100314.59
2022-10-18T14:41:52.880Z,100312.94
2022-10-18T14:47:10.034Z,100309.75
2022-10-18T14:52:18.315Z,100306.44
2022-10-18T14:57:26.181Z,100304.75
2022-10-18T15:02:31.258Z,100292.19
2022-10-18T15:07:34.262Z,100304.09
2022-10-18T15:12:57.788Z,100315.16
2022-10-18T15:18:02.992Z,100304.56
2022-10-18T15:23:28.414Z,100311.34
2022-10-18T15:28:51.407Z,100315.09
2022-10-18T15:34:21.008Z,100316.44
2022-10-18T15:39:32.193Z,100314.97
2022-10-18T15:44:48.924Z,100321.88
2022-10-18T15:49:56.920Z,100322.75
2022-10-18T15:55:00.191Z,100328.66
2022-10-18T16:00:07.019Z,100315.66
2022-10-18T16:05:19.366Z,100333.50
2022-10-18T16:10:21.991Z,100330.03
2022-10-18T16:15:24.839Z,100317.09
2022-10-18T16:20:27.604Z,100328.25
2022-10-18T16:25:30.284Z,100326.28
2022-10-18T16:30:34.664Z,100324.84
2022-10-18T16:35:37.461Z,100332.28
2022-10-18T16:40:58.869Z,100330.50
2022-10-18T16:46:02.371Z,100327.03
2022-10-18T16:51:05.212Z,100331.31
2022-10-18T16:56:14.609Z,100342.28
2022-10-18T17:01:20.019Z,100338.44
2022-10-18T17:06:23.977Z,100332.72
2022-10-18T17:11:28.713Z,100331.72
2022-10-18T17:16:35.521Z,100340.53
2022-10-18T17:21:38.267Z,100301.56
2022-10-18T17:26:40.971Z,100323.09
2022-10-18T17:31:43.663Z,100336.63
2022-10-18T17:36:46.670Z,100336.56
2022-10-18T17:41:49.393Z,100336.63
2022-10-18T17:46:52.170Z,100337.50
2022-10-18T17:51:54.816Z,100337.72
2022-10-18T17:56:57.507Z,100331.72
2022-10-18T18:02:00.235Z,100322.31
2022-10-18T18:07:04.797Z,100323.97
2022-10-18T18:12:07.487Z,100321.75
2022-10-18T18:17:10.438Z,100327.03
2022-10-18T18:22:13.095Z,100328.53
2022-10-18T18:27:15.758Z,100333.03
2022-10-18T18:32:18.391Z,100306.91
2022-10-18T18:37:21.185Z,100314.03
2022-10-18T18:42:23.970Z,100325.34
2022-10-18T18:47:27.790Z,100331.44
2022-10-18T18:52:30.752Z,100330.63
2022-10-18T18:57:33.721Z,100328.69
2022-10-18T19:02:36.789Z,100329.63
2022-10-18T19:07:39.560Z,100303.75
2022-10-18T19:12:42.211Z,100332.22
2022-10-18T19:17:45.188Z,100336.41
2022-10-18T19:22:47.885Z,100337.13
2022-10-18T19:27:50.506Z,100339.09
2022-10-18T19:33:01.170Z,100343.44
2022-10-18T19:38:06.256Z,100336.50
2022-10-18T19:43:08.900Z,100342.34
2022-10-18T19:48:13.493Z,100343.88
2022-10-18T19:53:16.343Z,100333.34
2022-10-18T19:58:19.106Z,100342.72
2022-10-18T20:03:23.525Z,100343.00
2022-10-18T20:08:27.682Z,100338.09
2022-10-18T20:13:30.624Z,100344.16
2022-10-18T20:18:33.786Z,100340.91
2022-10-18T20:23:38.214Z,100346.63
2022-10-18T20:28:40.994Z,100340.53
2022-10-18T20:33:44.282Z,100326.69
2022-10-18T20:38:48.290Z,100341.63
2022-10-18T20:43:55.718Z,100344.94
2022-10-18T20:48:58.883Z,100342.56
2022-10-18T20:59:10.255Z,100338.38
2022-10-18T21:04:13.255Z,100332.56
2022-10-18T21:09:18.455Z,100337.78
2022-10-18T21:14:23.174Z,100347.63
2022-10-18T21:19:27.273Z,100351.09
2022-10-18T21:24:30.825Z,100342.56
2022-10-18T21:29:33.464Z,100343.44
2022-10-18T21:34:36.073Z,100342.41
2022-10-18T21:39:38.931Z,100345.88
2022-10-18T21:44:41.495Z,100328.41
2022-10-18T21:49:44.198Z,100347.69
2022-10-18T21:54:46.911Z,100348.34
2022-10-18T21:59:49.610Z,100350.94
2022-10-18T22:04:52.326Z,100345.59
2022-10-18T22:09:54.968Z,100352.91
2022-10-18T22:14:57.715Z,100358.34
2022-10-18T22:20:00.409Z,100346.03
2022-10-18T22:25:03.199Z,100367.31
2022-10-18T22:30:06.905Z,100358.78
2022-10-18T22:35:09.859Z,100365.63
2022-10-18T22:40:12.705Z,100345.38
2022-10-18T22:45:15.429Z,100369.75
2022-10-18T22:50:18.202Z,100364.69
2022-10-18T22:55:21.011Z,100376.63
2022-10-18T23:00:23.729Z,100366.91
2022-10-18T23:05:26.415Z,100375.84
2022-10-18T23:10:29.274Z,100367.88
2022-10-18T23:15:33.611Z,100367.34
2022-10-18T23:20:36.502Z,100386.22
2022-10-18T23:25:39.329Z,100379.44
2022-10-18T23:30:42.057Z,100379.22
2022-10-18T23:35:45.130Z,100385.28
2022-10-18T23:40:47.823Z,100391.56
2022-10-18T23:45:50.486Z,100397.81
2022-10-18T23:50:53.348Z,100390.72
2022-10-18T23:56:01.636Z,100390.44
